Ariadne Jacob — ZCTC4 — position and weather

sailwx.info

Track history (hours):
 
Tides and Currents Weather Stations Pressure Air Temp Water Temp Dewpoint Dewpoint Depression Visibility Wind Speed Wind Dir Waves Ship Positions

Ariadne Jacob

Last reported at 2017-Dec-04 07:50 UTC. Time now 2017-Dec-11 02:30 UTC.
Position N 39°53' W 075°10'.

Length 228 m; draft 8.6 m.

Type: Tanker. MMSI: 319768000.

Date/timePositionNaut miles runAvg speedWind from/ knotsBaromVisibWave heightAir tempDewpointWater temp
2017-Dec-04 07:50N 39°53' W 075°10'0 0.0
2017-Dec-04 06:59N 39°53' W 075°10'0 0.0
2017-Dec-04 06:27N 39°53' W 075°10'0 0.0
2017-Dec-04 04:14N 39°53' W 075°10'0 0.0
2017-Dec-04 03:34N 39°53' W 075°10'0 0.0
2017-Dec-04 03:19N 39°53' W 075°10'0 0.0
2017-Dec-04 02:57N 39°53' W 075°10'1 2.2
2017-Dec-04 02:28N 39°53' W 075°11'2 4.7
2017-Dec-04 01:59N 39°52' W 075°13'4 8.5
2017-Dec-04 01:28N 39°51' W 075°19'815.0
2017-Dec-04 00:55N 39°46' W 075°28'3 5.9
2017-Dec-04 00:27N 39°44' W 075°30'2 3.7
2017-Dec-03 23:59N 39°42' W 075°31'511.3
2017-Dec-03 23:30N 39°38' W 075°34'611.9
2017-Dec-03 22:59N 39°32' W 075°33'612.2
2017-Dec-03 22:30N 39°26' W 075°32'713.4
2017-Dec-03 22:00N 39°21' W 075°26'1321.4
2017-Dec-03 21:24N 39°11' W 075°16'814.0
2017-Dec-03 20:50N 39°04' W 075°11'615.6
2017-Dec-03 20:28N 38°59' W 075°08'1313.3
2017-Dec-03 19:31N 38°47' W 075°02'5 7.1
2017-Dec-03 18:50N 38°48' W 074°55'1 3.1
2017-Dec-03 18:27N 38°48' W 074°54'6 0.2
2017-Dec-02 13:28N 38°50' W 074°47'2 3.2
2017-Dec-02 12:57N 38°49' W 074°45'610.8
2017-Dec-02 12:25N 38°49' W 074°38'717.0
2017-Dec-02 11:59N 38°49' W 074°28'4 8.2
2017-Dec-02 11:29N 38°50' W 074°23'4711.2
2017-Dec-02 07:16N 39°33' W 073°58'413.5
2017-Dec-02 06:58N 39°37' W 073°56'613.5
2017-Dec-02 06:30N 39°42' W 073°53'713.5
2017-Dec-02 06:00N 39°49' W 073°51'3313.7
2017-Dec-02 03:34N 40°22' W 073°48'1112.1
2017-Dec-02 02:42N 40°31' W 073°41'0 1.4
2017-Dec-02 02:25N 40°31' W 073°41'0 0.0
2017-Dec-02 01:58N 40°31' W 073°41'0 0.0
2017-Dec-01 23:10N 40°31' W 073°41'0 0.0
2017-Dec-01 19:58N 40°31' W 073°41'0 0.1
2017-Dec-01 19:28N 40°31' W 073°41'0 0.0
2017-Dec-01 18:16N 40°31' W 073°41'0 0.0
2017-Dec-01 09:34N 40°31' W 073°41'0 0.0
2017-Dec-01 09:28N 40°31' W 073°41'0 0.1
2017-Dec-01 08:58N 40°31' W 073°40'0 0.0
2017-Nov-30 22:46N 40°31' W 073°41'0 0.0
2017-Nov-30 12:52N 40°31' W 073°41'0 0.1
2017-Nov-30 12:16N 40°31' W 073°41'0 0.0
2017-Nov-30 09:01N 40°31' W 073°41'0 0.1
2017-Nov-30 08:58N 40°31' W 073°41'0 0.0
2017-Nov-30 08:28N 40°31' W 073°41'0 0.0
2017-Nov-30 05:46N 40°31' W 073°41'0 0.0
2017-Nov-30 05:10N 40°31' W 073°41'0 0.0
2017-Nov-30 04:49N 40°31' W 073°41'0 0.0
2017-Nov-29 22:25N 40°31' W 073°40'0 0.0
2017-Nov-29 19:07N 40°31' W 073°40'0 0.1
2017-Nov-29 18:43N 40°31' W 073°40'0 0.0
2017-Nov-29 18:22N 40°31' W 073°40'0 0.0
2017-Nov-29 15:58N 40°31' W 073°40'0 0.0
2017-Nov-29 15:16N 40°31' W 073°40'0 0.0
2017-Nov-29 13:13N 40°31' W 073°40'0 0.0
2017-Nov-29 12:55N 40°31' W 073°40'0 0.0
2017-Nov-29 12:16N 40°31' W 073°40'0 0.0
2017-Nov-29 11:49N 40°31' W 073°40'0 0.0
2017-Nov-29 11:22N 40°31' W 073°40'0 0.0
2017-Nov-29 10:58N 40°31' W 073°40'0 0.0
2017-Nov-29 10:28N 40°31' W 073°40'0 0.1
2017-Nov-29 09:52N 40°31' W 073°40'0 0.0
2017-Nov-29 08:55N 40°31' W 073°41'0 0.0
2017-Nov-29 08:13N 40°31' W 073°40'0 0.0
2017-Nov-28 12:58N 40°31' W 073°41'0 0.0
2017-Nov-28 08:25N 40°31' W 073°41'0 0.0
2017-Nov-28 07:43N 40°31' W 073°40'0 0.0
2017-Nov-28 07:25N 40°31' W 073°41'0 0.0
2017-Nov-28 06:58N 40°31' W 073°41'0 0.0
2017-Nov-28 06:04N 40°31' W 073°41'0 0.0
2017-Nov-28 05:58N 40°31' W 073°41'0 0.0
2017-Nov-28 05:28N 40°31' W 073°41'0 0.0
2017-Nov-28 04:28N 40°31' W 073°41'0 0.0
2017-Nov-27 23:55N 40°31' W 073°40'0 0.0
2017-Nov-27 23:28N 40°31' W 073°40'0 0.0
2017-Nov-27 21:55N 40°31' W 073°40'0 0.0
2017-Nov-27 21:28N 40°31' W 073°40'0 0.0
2017-Nov-27 20:49N 40°31' W 073°40'0 0.0
2017-Nov-27 19:34N 40°31' W 073°40'0 0.2
2017-Nov-27 19:28N 40°31' W 073°40'0 0.1
2017-Nov-27 18:58N 40°31' W 073°40'0 0.1
2017-Nov-27 18:28N 40°31' W 073°40'0 0.0
2017-Nov-27 17:49N 40°31' W 073°40'0 0.1
2017-Nov-27 17:16N 40°31' W 073°40'0 0.0
2017-Nov-27 16:55N 40°31' W 073°40'0 0.0
2017-Nov-27 16:19N 40°31' W 073°40'0 0.1
2017-Nov-27 15:55N 40°31' W 073°40'0 0.0
2017-Nov-27 14:31N 40°31' W 073°40'0 0.0
2017-Nov-27 14:04N 40°31' W 073°40'0 0.0
2017-Nov-27 12:46N 40°31' W 073°40'0 0.0
2017-Nov-27 11:19N 40°31' W 073°40'0 0.1
2017-Nov-27 10:58N 40°31' W 073°40'0 0.1
2017-Nov-27 10:13N 40°31' W 073°40'0 0.0
2017-Nov-27 09:55N 40°31' W 073°40'0 0.1
2017-Nov-27 09:25N 40°31' W 073°40'0 0.0
2017-Nov-27 08:43N 40°31' W 073°40'0 0.0
2017-Nov-27 08:10N 40°31' W 073°40'0 0.0
2017-Nov-27 06:46N 40°31' W 073°40'0 0.0
2017-Nov-27 05:37N 40°31' W 073°40'0 0.4
2017-Nov-27 05:28N 40°31' W 073°40'0 0.0
2017-Nov-27 04:46N 40°31' W 073°40'0 0.1
2017-Nov-27 04:25N 40°31' W 073°40'0 0.0
2017-Nov-27 03:01N 40°31' W 073°40'0 0.1
2017-Nov-27 02:46N 40°31' W 073°40'0 0.2
2017-Nov-27 02:28N 40°31' W 073°40'0 0.0
2017-Nov-27 01:01N 40°31' W 073°40'0 0.1
2017-Nov-27 00:49N 40°31' W 073°40'0 0.0
2017-Nov-27 00:28N 40°31' W 073°40'0 0.0
2017-Nov-26 23:31N 40°31' W 073°40'0 0.0
2017-Nov-26 23:28N 40°31' W 073°40'0 0.0
2017-Nov-26 22:58N 40°31' W 073°40'0 0.0
2017-Nov-26 22:28N 40°31' W 073°40'0 0.0
2017-Nov-26 21:46N 40°31' W 073°40'0 0.1
2017-Nov-26 21:28N 40°31' W 073°40'0 0.1
2017-Nov-26 20:58N 40°31' W 073°40'0 0.1
2017-Nov-26 20:28N 40°31' W 073°40'0 0.0
2017-Nov-26 19:40N 40°31' W 073°40'0 0.0
2017-Nov-26 18:43N 40°31' W 073°40'0 0.0
2017-Nov-26 13:49N 40°31' W 073°40'0 0.1
2017-Nov-26 13:13N 40°31' W 073°40'0 0.0
2017-Nov-26 12:37N 40°31' W 073°40'0 0.0
2017-Nov-26 12:28N 40°31' W 073°40'0 0.0
2017-Nov-26 11:52N 40°31' W 073°40'0 0.0
2017-Nov-26 11:28N 40°31' W 073°40'0 0.0
2017-Nov-26 10:46N 40°31' W 073°40'0 0.0
2017-Nov-26 10:22N 40°31' W 073°40'0 0.0
2017-Nov-26 09:40N 40°31' W 073°40'0 0.1
2017-Nov-26 09:25N 40°31' W 073°40'0 0.0
2017-Nov-26 07:10N 40°31' W 073°40'0 0.1
2017-Nov-26 06:58N 40°31' W 073°40'0 0.0
2017-Nov-26 06:22N 40°31' W 073°40'0 0.0
2017-Nov-26 05:34N 40°31' W 073°40'0 0.1
2017-Nov-26 05:28N 40°31' W 073°40'0 0.0
2017-Nov-26 04:52N 40°31' W 073°40'0 0.0
2017-Nov-26 03:58N 40°31' W 073°40'0 0.0
2017-Nov-26 03:16N 40°31' W 073°40'0 0.0
2017-Nov-25 22:25N 40°31' W 073°40'0 0.0
2017-Nov-25 15:04N 40°31' W 073°41'0 0.1
2017-Nov-25 14:55N 40°31' W 073°41'0 0.0
2017-Nov-25 14:22N 40°31' W 073°41'0 0.0
2017-Nov-25 13:58N 40°31' W 073°41'0 0.0
2017-Nov-25 13:28N 40°31' W 073°41'0 0.0
2017-Nov-25 12:55N 40°31' W 073°41'0 0.0
2017-Nov-25 12:28N 40°31' W 073°41'0 0.0
2017-Nov-25 11:58N 40°31' W 073°41'0 0.0
2017-Nov-25 11:28N 40°31' W 073°41'0 0.0
2017-Nov-25 10:55N 40°31' W 073°41'0 0.0
2017-Nov-25 10:28N 40°31' W 073°41'0 0.0
2017-Nov-25 09:58N 40°31' W 073°41'0 0.0
2017-Nov-25 09:25N 40°31' W 073°41'0 0.0
2017-Nov-25 08:04N 40°31' W 073°41'0 0.1
2017-Nov-25 07:58N 40°31' W 073°41'0 0.0
2017-Nov-25 07:16N 40°31' W 073°41'0 0.0
2017-Nov-25 06:52N 40°31' W 073°41'0 0.0
2017-Nov-25 05:16N 40°31' W 073°41'0 0.1
2017-Nov-25 04:55N 40°31' W 073°41'0 0.0
2017-Nov-25 03:25N 40°31' W 073°41'0 0.0
2017-Nov-25 02:43N 40°31' W 073°41'0 0.0
2017-Nov-25 02:22N 40°31' W 073°41'0 0.0
2017-Nov-24 10:10N 40°31' W 073°40'0 0.1
2017-Nov-24 09:46N 40°31' W 073°40'0 0.0
2017-Nov-24 09:25N 40°31' W 073°40'0 0.0
2017-Nov-24 08:55N 40°31' W 073°40'0 0.0
2017-Nov-24 08:13N 40°31' W 073°40'0 0.0
2017-Nov-24 07:58N 40°31' W 073°40'  
Track history (hours):
 
Tides and Currents Weather Stations Pressure Air Temp Water Temp Dewpoint Dewpoint Depression Visibility Wind Speed Wind Dir Waves Ship Positions

Ariadne Jacob

Last reported at 2017-Dec-04 07:50 UTC. Time now 2017-Dec-11 02:30 UTC.
Position N 39°53' W 075°10'.

Length 228 m; draft 8.6 m.

Type: Tanker. MMSI: 319768000.

Date/timePositionNaut miles runAvg speedWind from/ knotsBaromVisibWave heightAir tempDewpointWater temp
2017-Dec-04 07:50N 39°53' W 075°10'0 0.0
2017-Dec-04 06:59N 39°53' W 075°10'0 0.0
2017-Dec-04 06:27N 39°53' W 075°10'0 0.0
2017-Dec-04 04:14N 39°53' W 075°10'0 0.0
2017-Dec-04 03:34N 39°53' W 075°10'0 0.0
2017-Dec-04 03:19N 39°53' W 075°10'0 0.0
2017-Dec-04 02:57N 39°53' W 075°10'1 2.2
2017-Dec-04 02:28N 39°53' W 075°11'2 4.7
2017-Dec-04 01:59N 39°52' W 075°13'4 8.5
2017-Dec-04 01:28N 39°51' W 075°19'815.0
2017-Dec-04 00:55N 39°46' W 075°28'3 5.9
2017-Dec-04 00:27N 39°44' W 075°30'2 3.7
2017-Dec-03 23:59N 39°42' W 075°31'511.3
2017-Dec-03 23:30N 39°38' W 075°34'611.9
2017-Dec-03 22:59N 39°32' W 075°33'612.2
2017-Dec-03 22:30N 39°26' W 075°32'713.4
2017-Dec-03 22:00N 39°21' W 075°26'1321.4
2017-Dec-03 21:24N 39°11' W 075°16'814.0
2017-Dec-03 20:50N 39°04' W 075°11'615.6
2017-Dec-03 20:28N 38°59' W 075°08'1313.3
2017-Dec-03 19:31N 38°47' W 075°02'5 7.1
2017-Dec-03 18:50N 38°48' W 074°55'1 3.1
2017-Dec-03 18:27N 38°48' W 074°54'6 0.2
2017-Dec-02 13:28N 38°50' W 074°47'2 3.2
2017-Dec-02 12:57N 38°49' W 074°45'610.8
2017-Dec-02 12:25N 38°49' W 074°38'717.0
2017-Dec-02 11:59N 38°49' W 074°28'4 8.2
2017-Dec-02 11:29N 38°50' W 074°23'4711.2
2017-Dec-02 07:16N 39°33' W 073°58'413.5
2017-Dec-02 06:58N 39°37' W 073°56'613.5
2017-Dec-02 06:30N 39°42' W 073°53'713.5
2017-Dec-02 06:00N 39°49' W 073°51'3313.7
2017-Dec-02 03:34N 40°22' W 073°48'1112.1
2017-Dec-02 02:42N 40°31' W 073°41'0 1.4
2017-Dec-02 02:25N 40°31' W 073°41'0 0.0
2017-Dec-02 01:58N 40°31' W 073°41'0 0.0
2017-Dec-01 23:10N 40°31' W 073°41'0 0.0
2017-Dec-01 19:58N 40°31' W 073°41'0 0.1
2017-Dec-01 19:28N 40°31' W 073°41'0 0.0
2017-Dec-01 18:16N 40°31' W 073°41'0 0.0
2017-Dec-01 09:34N 40°31' W 073°41'0 0.0
2017-Dec-01 09:28N 40°31' W 073°41'0 0.1
2017-Dec-01 08:58N 40°31' W 073°40'0 0.0
2017-Nov-30 22:46N 40°31' W 073°41'0 0.0
2017-Nov-30 12:52N 40°31' W 073°41'0 0.1
2017-Nov-30 12:16N 40°31' W 073°41'0 0.0
2017-Nov-30 09:01N 40°31' W 073°41'0 0.1
2017-Nov-30 08:58N 40°31' W 073°41'0 0.0
2017-Nov-30 08:28N 40°31' W 073°41'0 0.0
2017-Nov-30 05:46N 40°31' W 073°41'0 0.0
2017-Nov-30 05:10N 40°31' W 073°41'0 0.0
2017-Nov-30 04:49N 40°31' W 073°41'0 0.0
2017-Nov-29 22:25N 40°31' W 073°40'0 0.0
2017-Nov-29 19:07N 40°31' W 073°40'0 0.1
2017-Nov-29 18:43N 40°31' W 073°40'0 0.0
2017-Nov-29 18:22N 40°31' W 073°40'0 0.0
2017-Nov-29 15:58N 40°31' W 073°40'0 0.0
2017-Nov-29 15:16N 40°31' W 073°40'0 0.0
2017-Nov-29 13:13N 40°31' W 073°40'0 0.0
2017-Nov-29 12:55N 40°31' W 073°40'0 0.0
2017-Nov-29 12:16N 40°31' W 073°40'0 0.0
2017-Nov-29 11:49N 40°31' W 073°40'0 0.0
2017-Nov-29 11:22N 40°31' W 073°40'0 0.0
2017-Nov-29 10:58N 40°31' W 073°40'0 0.0
2017-Nov-29 10:28N 40°31' W 073°40'0 0.1
2017-Nov-29 09:52N 40°31' W 073°40'0 0.0
2017-Nov-29 08:55N 40°31' W 073°41'0 0.0
2017-Nov-29 08:13N 40°31' W 073°40'0 0.0
2017-Nov-28 12:58N 40°31' W 073°41'0 0.0
2017-Nov-28 08:25N 40°31' W 073°41'0 0.0
2017-Nov-28 07:43N 40°31' W 073°40'0 0.0
2017-Nov-28 07:25N 40°31' W 073°41'0 0.0
2017-Nov-28 06:58N 40°31' W 073°41'0 0.0
2017-Nov-28 06:04N 40°31' W 073°41'0 0.0
2017-Nov-28 05:58N 40°31' W 073°41'0 0.0
2017-Nov-28 05:28N 40°31' W 073°41'0 0.0
2017-Nov-28 04:28N 40°31' W 073°41'0 0.0
2017-Nov-27 23:55N 40°31' W 073°40'0 0.0
2017-Nov-27 23:28N 40°31' W 073°40'0 0.0
2017-Nov-27 21:55N 40°31' W 073°40'0 0.0
2017-Nov-27 21:28N 40°31' W 073°40'0 0.0
2017-Nov-27 20:49N 40°31' W 073°40'0 0.0
2017-Nov-27 19:34N 40°31' W 073°40'0 0.2
2017-Nov-27 19:28N 40°31' W 073°40'0 0.1
2017-Nov-27 18:58N 40°31' W 073°40'0 0.1
2017-Nov-27 18:28N 40°31' W 073°40'0 0.0
2017-Nov-27 17:49N 40°31' W 073°40'0 0.1
2017-Nov-27 17:16N 40°31' W 073°40'0 0.0
2017-Nov-27 16:55N 40°31' W 073°40'0 0.0
2017-Nov-27 16:19N 40°31' W 073°40'0 0.1
2017-Nov-27 15:55N 40°31' W 073°40'0 0.0
2017-Nov-27 14:31N 40°31' W 073°40'0 0.0
2017-Nov-27 14:04N 40°31' W 073°40'0 0.0
2017-Nov-27 12:46N 40°31' W 073°40'0 0.0
2017-Nov-27 11:19N 40°31' W 073°40'0 0.1
2017-Nov-27 10:58N 40°31' W 073°40'0 0.1
2017-Nov-27 10:13N 40°31' W 073°40'0 0.0
2017-Nov-27 09:55N 40°31' W 073°40'0 0.1
2017-Nov-27 09:25N 40°31' W 073°40'0 0.0
2017-Nov-27 08:43N 40°31' W 073°40'0 0.0
2017-Nov-27 08:10N 40°31' W 073°40'0 0.0
2017-Nov-27 06:46N 40°31' W 073°40'0 0.0
2017-Nov-27 05:37N 40°31' W 073°40'0 0.4
2017-Nov-27 05:28N 40°31' W 073°40'0 0.0
2017-Nov-27 04:46N 40°31' W 073°40'0 0.1
2017-Nov-27 04:25N 40°31' W 073°40'0 0.0
2017-Nov-27 03:01N 40°31' W 073°40'0 0.1
2017-Nov-27 02:46N 40°31' W 073°40'0 0.2
2017-Nov-27 02:28N 40°31' W 073°40'0 0.0
2017-Nov-27 01:01N 40°31' W 073°40'0 0.1
2017-Nov-27 00:49N 40°31' W 073°40'0 0.0
2017-Nov-27 00:28N 40°31' W 073°40'0 0.0
2017-Nov-26 23:31N 40°31' W 073°40'0 0.0
2017-Nov-26 23:28N 40°31' W 073°40'0 0.0
2017-Nov-26 22:58N 40°31' W 073°40'0 0.0
2017-Nov-26 22:28N 40°31' W 073°40'0 0.0
2017-Nov-26 21:46N 40°31' W 073°40'0 0.1
2017-Nov-26 21:28N 40°31' W 073°40'0 0.1
2017-Nov-26 20:58N 40°31' W 073°40'0 0.1
2017-Nov-26 20:28N 40°31' W 073°40'0 0.0
2017-Nov-26 19:40N 40°31' W 073°40'0 0.0
2017-Nov-26 18:43N 40°31' W 073°40'0 0.0
2017-Nov-26 13:49N 40°31' W 073°40'0 0.1
2017-Nov-26 13:13N 40°31' W 073°40'0 0.0
2017-Nov-26 12:37N 40°31' W 073°40'0 0.0
2017-Nov-26 12:28N 40°31' W 073°40'0 0.0
2017-Nov-26 11:52N 40°31' W 073°40'0 0.0
2017-Nov-26 11:28N 40°31' W 073°40'0 0.0
2017-Nov-26 10:46N 40°31' W 073°40'0 0.0
2017-Nov-26 10:22N 40°31' W 073°40'0 0.0
2017-Nov-26 09:40N 40°31' W 073°40'0 0.1
2017-Nov-26 09:25N 40°31' W 073°40'0 0.0
2017-Nov-26 07:10N 40°31' W 073°40'0 0.1
2017-Nov-26 06:58N 40°31' W 073°40'0 0.0
2017-Nov-26 06:22N 40°31' W 073°40'0 0.0
2017-Nov-26 05:34N 40°31' W 073°40'0 0.1
2017-Nov-26 05:28N 40°31' W 073°40'0 0.0
2017-Nov-26 04:52N 40°31' W 073°40'0 0.0
2017-Nov-26 03:58N 40°31' W 073°40'0 0.0
2017-Nov-26 03:16N 40°31' W 073°40'0 0.0
2017-Nov-25 22:25N 40°31' W 073°40'0 0.0
2017-Nov-25 15:04N 40°31' W 073°41'0 0.1
2017-Nov-25 14:55N 40°31' W 073°41'0 0.0
2017-Nov-25 14:22N 40°31' W 073°41'0 0.0
2017-Nov-25 13:58N 40°31' W 073°41'0 0.0
2017-Nov-25 13:28N 40°31' W 073°41'0 0.0
2017-Nov-25 12:55N 40°31' W 073°41'0 0.0
2017-Nov-25 12:28N 40°31' W 073°41'0 0.0
2017-Nov-25 11:58N 40°31' W 073°41'0 0.0
2017-Nov-25 11:28N 40°31' W 073°41'0 0.0
2017-Nov-25 10:55N 40°31' W 073°41'0 0.0
2017-Nov-25 10:28N 40°31' W 073°41'0 0.0
2017-Nov-25 09:58N 40°31' W 073°41'0 0.0
2017-Nov-25 09:25N 40°31' W 073°41'0 0.0
2017-Nov-25 08:04N 40°31' W 073°41'0 0.1
2017-Nov-25 07:58N 40°31' W 073°41'0 0.0
2017-Nov-25 07:16N 40°31' W 073°41'0 0.0
2017-Nov-25 06:52N 40°31' W 073°41'0 0.0
2017-Nov-25 05:16N 40°31' W 073°41'0 0.1
2017-Nov-25 04:55N 40°31' W 073°41'0 0.0
2017-Nov-25 03:25N 40°31' W 073°41'0 0.0
2017-Nov-25 02:43N 40°31' W 073°41'0 0.0
2017-Nov-25 02:22N 40°31' W 073°41'0 0.0
2017-Nov-24 10:10N 40°31' W 073°40'0 0.1
2017-Nov-24 09:46N 40°31' W 073°40'0 0.0
2017-Nov-24 09:25N 40°31' W 073°40'0 0.0
2017-Nov-24 08:55N 40°31' W 073°40'0 0.0
2017-Nov-24 08:13N 40°31' W 073°40'0 0.0
2017-Nov-24 07:58N 40°31' W 073°40'  

Dump ship's entire track history